sensor_id;sensor_type;location;lat;lon;timestamp;P1;durP1;ratioP1;P2;durP2;ratioP2
16824;SDS011;8529;48.108;-1.706;2023-04-30T00:00:16;26.05;;;15.45;;
16824;SDS011;8529;48.108;-1.706;2023-04-30T00:02:43;30.30;;;16.25;;
16824;SDS011;8529;48.108;-1.706;2023-04-30T00:05:11;28.55;;;15.60;;
16824;SDS011;8529;48.108;-1.706;2023-04-30T00:07:38;25.27;;;14.95;;
16824;SDS011;8529;48.108;-1.706;2023-04-30T00:10:07;25.45;;;15.38;;
16824;SDS011;8529;48.108;-1.706;2023-04-30T00:12:34;25.92;;;15.90;;
16824;SDS011;8529;48.108;-1.706;2023-04-30T00:15:01;24.90;;;14.77;;
16824;SDS011;8529;48.108;-1.706;2023-04-30T00:17:29;27.65;;;15.20;;
16824;SDS011;8529;48.108;-1.706;2023-04-30T00:19:56;25.25;;;15.13;;
16824;SDS011;8529;48.108;-1.706;2023-04-30T00:22:24;24.08;;;15.35;;
16824;SDS011;8529;48.108;-1.706;2023-04-30T00:24:51;28.85;;;15.00;;
16824;SDS011;8529;48.108;-1.706;2023-04-30T00:27:18;26.80;;;16.08;;
16824;SDS011;8529;48.108;-1.706;2023-04-30T00:29:45;26.27;;;15.50;;
16824;SDS011;8529;48.108;-1.706;2023-04-30T00:32:12;30.20;;;17.25;;
16824;SDS011;8529;48.108;-1.706;2023-04-30T00:34:39;28.27;;;16.58;;
16824;SDS011;8529;48.108;-1.706;2023-04-30T00:37:06;26.45;;;15.93;;
16824;SDS011;8529;48.108;-1.706;2023-04-30T00:39:34;27.08;;;15.80;;
16824;SDS011;8529;48.108;-1.706;2023-04-30T00:42:01;28.15;;;16.45;;
16824;SDS011;8529;48.108;-1.706;2023-04-30T00:44:28;27.15;;;15.85;;
16824;SDS011;8529;48.108;-1.706;2023-04-30T00:46:54;28.83;;;15.65;;
16824;SDS011;8529;48.108;-1.706;2023-04-30T00:49:21;26.92;;;15.90;;
16824;SDS011;8529;48.108;-1.706;2023-04-30T00:51:48;30.15;;;16.40;;
16824;SDS011;8529;48.108;-1.706;2023-04-30T00:54:16;24.55;;;14.55;;
16824;SDS011;8529;48.108;-1.706;2023-04-30T00:56:46;26.27;;;15.48;;
16824;SDS011;8529;48.108;-1.706;2023-04-30T00:59:13;23.98;;;14.95;;
16824;SDS011;8529;48.108;-1.706;2023-04-30T01:01:40;23.58;;;14.15;;
16824;SDS011;8529;48.108;-1.706;2023-04-30T01:04:07;29.65;;;16.38;;
16824;SDS011;8529;48.108;-1.706;2023-04-30T01:06:34;26.00;;;15.15;;
16824;SDS011;8529;48.108;-1.706;2023-04-30T01:09:02;30.02;;;15.13;;
16824;SDS011;8529;48.108;-1.706;2023-04-30T01:11:32;27.67;;;15.38;;
16824;SDS011;8529;48.108;-1.706;2023-04-30T01:14:12;26.35;;;14.43;;
16824;SDS011;8529;48.108;-1.706;2023-04-30T01:16:46;24.30;;;14.68;;
16824;SDS011;8529;48.108;-1.706;2023-04-30T01:19:19;26.15;;;14.45;;
16824;SDS011;8529;48.108;-1.706;2023-04-30T01:21:59;25.55;;;14.88;;
16824;SDS011;8529;48.108;-1.706;2023-04-30T01:24:35;23.63;;;13.77;;
16824;SDS011;8529;48.108;-1.706;2023-04-30T01:27:23;30.95;;;15.25;;
16824;SDS011;8529;48.108;-1.706;2023-04-30T01:29:58;24.20;;;14.80;;
16824;SDS011;8529;48.108;-1.706;2023-04-30T01:32:28;27.20;;;14.23;;
16824;SDS011;8529;48.108;-1.706;2023-04-30T01:34:55;26.60;;;14.95;;
16824;SDS011;8529;48.108;-1.706;2023-04-30T01:37:24;21.90;;;13.20;;
16824;SDS011;8529;48.108;-1.706;2023-04-30T01:40:00;24.80;;;14.27;;
16824;SDS011;8529;48.108;-1.706;2023-04-30T01:42:36;24.98;;;13.32;;
16824;SDS011;8529;48.108;-1.706;2023-04-30T01:45:24;27.83;;;15.45;;
16824;SDS011;8529;48.108;-1.706;2023-04-30T01:48:18;24.55;;;14.68;;
16824;SDS011;8529;48.108;-1.706;2023-04-30T01:50:49;22.90;;;13.88;;
16824;SDS011;8529;48.108;-1.706;2023-04-30T01:53:21;25.27;;;14.23;;
16824;SDS011;8529;48.108;-1.706;2023-04-30T01:55:55;22.58;;;13.65;;
16824;SDS011;8529;48.108;-1.706;2023-04-30T01:58:24;24.60;;;13.68;;
16824;SDS011;8529;48.108;-1.706;2023-04-30T02:00:54;25.67;;;14.70;;
16824;SDS011;8529;48.108;-1.706;2023-04-30T02:03:21;24.80;;;13.65;;
16824;SDS011;8529;48.108;-1.706;2023-04-30T02:05:48;24.08;;;14.93;;
16824;SDS011;8529;48.108;-1.706;2023-04-30T02:08:15;21.67;;;12.57;;
16824;SDS011;8529;48.108;-1.706;2023-04-30T02:10:42;24.90;;;14.40;;
16824;SDS011;8529;48.108;-1.706;2023-04-30T02:13:09;24.48;;;13.85;;
16824;SDS011;8529;48.108;-1.706;2023-04-30T02:15:36;23.60;;;13.93;;
16824;SDS011;8529;48.108;-1.706;2023-04-30T02:18:04;24.98;;;13.00;;
16824;SDS011;8529;48.108;-1.706;2023-04-30T02:20:31;22.00;;;12.45;;
16824;SDS011;8529;48.108;-1.706;2023-04-30T02:22:58;23.90;;;14.05;;
16824;SDS011;8529;48.108;-1.706;2023-04-30T02:25:25;28.67;;;14.82;;
16824;SDS011;8529;48.108;-1.706;2023-04-30T02:27:52;28.20;;;14.88;;
16824;SDS011;8529;48.108;-1.706;2023-04-30T02:30:18;24.73;;;14.80;;
16824;SDS011;8529;48.108;-1.706;2023-04-30T02:32:45;28.45;;;14.20;;
16824;SDS011;8529;48.108;-1.706;2023-04-30T02:35:14;28.20;;;14.70;;
16824;SDS011;8529;48.108;-1.706;2023-04-30T02:37:41;28.60;;;14.85;;
16824;SDS011;8529;48.108;-1.706;2023-04-30T02:40:08;25.20;;;14.02;;
16824;SDS011;8529;48.108;-1.706;2023-04-30T02:42:36;31.77;;;16.65;;
16824;SDS011;8529;48.108;-1.706;2023-04-30T02:45:03;27.33;;;15.40;;
16824;SDS011;8529;48.108;-1.706;2023-04-30T02:47:30;26.52;;;14.15;;
16824;SDS011;8529;48.108;-1.706;2023-04-30T02:49:57;25.55;;;15.13;;
16824;SDS011;8529;48.108;-1.706;2023-04-30T02:52:25;22.65;;;13.60;;
16824;SDS011;8529;48.108;-1.706;2023-04-30T02:54:52;25.60;;;14.15;;
16824;SDS011;8529;48.108;-1.706;2023-04-30T02:57:19;24.55;;;14.55;;
16824;SDS011;8529;48.108;-1.706;2023-04-30T02:59:46;23.08;;;13.63;;
16824;SDS011;8529;48.108;-1.706;2023-04-30T03:02:13;22.95;;;14.13;;
16824;SDS011;8529;48.108;-1.706;2023-04-30T03:04:40;23.73;;;13.35;;
16824;SDS011;8529;48.108;-1.706;2023-04-30T03:07:07;23.02;;;13.65;;
16824;SDS011;8529;48.108;-1.706;2023-04-30T03:09:36;24.23;;;14.65;;
16824;SDS011;8529;48.108;-1.706;2023-04-30T03:12:03;25.02;;;13.93;;
16824;SDS011;8529;48.108;-1.706;2023-04-30T03:14:30;23.65;;;13.32;;
16824;SDS011;8529;48.108;-1.706;2023-04-30T03:16:57;30.13;;;15.02;;
16824;SDS011;8529;48.108;-1.706;2023-04-30T03:19:24;27.70;;;15.25;;
16824;SDS011;8529;48.108;-1.706;2023-04-30T03:21:50;29.38;;;15.02;;
16824;SDS011;8529;48.108;-1.706;2023-04-30T03:24:17;24.58;;;13.95;;
16824;SDS011;8529;48.108;-1.706;2023-04-30T03:26:46;25.77;;;14.57;;
16824;SDS011;8529;48.108;-1.706;2023-04-30T03:29:13;28.75;;;15.60;;
16824;SDS011;8529;48.108;-1.706;2023-04-30T03:31:39;28.30;;;16.20;;
16824;SDS011;8529;48.108;-1.706;2023-04-30T03:34:06;26.40;;;15.05;;
16824;SDS011;8529;48.108;-1.706;2023-04-30T03:36:33;27.60;;;15.52;;
16824;SDS011;8529;48.108;-1.706;2023-04-30T03:39:00;25.67;;;14.85;;
16824;SDS011;8529;48.108;-1.706;2023-04-30T03:41:28;28.98;;;16.30;;
16824;SDS011;8529;48.108;-1.706;2023-04-30T03:43:56;27.15;;;14.70;;
16824;SDS011;8529;48.108;-1.706;2023-04-30T03:46:23;29.38;;;14.85;;
16824;SDS011;8529;48.108;-1.706;2023-04-30T03:48:50;25.70;;;14.93;;
16824;SDS011;8529;48.108;-1.706;2023-04-30T03:51:17;28.23;;;14.65;;
16824;SDS011;8529;48.108;-1.706;2023-04-30T03:53:45;25.70;;;14.35;;
16824;SDS011;8529;48.108;-1.706;2023-04-30T03:56:12;24.35;;;14.35;;
16824;SDS011;8529;48.108;-1.706;2023-04-30T03:58:40;30.92;;;15.73;;
16824;SDS011;8529;48.108;-1.706;2023-04-30T04:01:08;29.70;;;16.27;;
16824;SDS011;8529;48.108;-1.706;2023-04-30T04:03:35;33.10;;;16.92;;
16824;SDS011;8529;48.108;-1.706;2023-04-30T04:06:02;29.33;;;15.75;;
16824;SDS011;8529;48.108;-1.706;2023-04-30T04:08:29;26.85;;;15.43;;
16824;SDS011;8529;48.108;-1.706;2023-04-30T04:10:56;25.45;;;14.73;;
16824;SDS011;8529;48.108;-1.706;2023-04-30T04:13:23;28.38;;;14.98;;
16824;SDS011;8529;48.108;-1.706;2023-04-30T04:15:50;25.88;;;14.65;;
16824;SDS011;8529;48.108;-1.706;2023-04-30T04:18:18;24.00;;;13.93;;
16824;SDS011;8529;48.108;-1.706;2023-04-30T04:20:45;29.70;;;16.55;;
16824;SDS011;8529;48.108;-1.706;2023-04-30T04:23:12;28.23;;;15.85;;
16824;SDS011;8529;48.108;-1.706;2023-04-30T04:25:39;25.63;;;15.15;;
16824;SDS011;8529;48.108;-1.706;2023-04-30T04:28:08;26.35;;;15.50;;
16824;SDS011;8529;48.108;-1.706;2023-04-30T04:30:35;28.27;;;16.00;;
16824;SDS011;8529;48.108;-1.706;2023-04-30T04:33:03;30.15;;;15.57;;
16824;SDS011;8529;48.108;-1.706;2023-04-30T04:35:32;34.00;;;15.85;;
16824;SDS011;8529;48.108;-1.706;2023-04-30T04:37:59;24.90;;;14.52;;
16824;SDS011;8529;48.108;-1.706;2023-04-30T04:40:26;26.85;;;15.30;;
16824;SDS011;8529;48.108;-1.706;2023-04-30T04:42:53;27.35;;;16.17;;
16824;SDS011;8529;48.108;-1.706;2023-04-30T04:45:20;31.58;;;17.60;;
16824;SDS011;8529;48.108;-1.706;2023-04-30T04:47:47;31.77;;;17.73;;
16824;SDS011;8529;48.108;-1.706;2023-04-30T04:50:15;33.10;;;17.33;;
16824;SDS011;8529;48.108;-1.706;2023-04-30T04:52:43;32.78;;;17.70;;
16824;SDS011;8529;48.108;-1.706;2023-04-30T04:55:10;30.63;;;17.13;;
16824;SDS011;8529;48.108;-1.706;2023-04-30T04:57:37;36.55;;;15.80;;
16824;SDS011;8529;48.108;-1.706;2023-04-30T05:00:05;31.42;;;17.30;;
16824;SDS011;8529;48.108;-1.706;2023-04-30T05:02:34;28.23;;;16.48;;
16824;SDS011;8529;48.108;-1.706;2023-04-30T05:05:00;26.20;;;15.27;;
16824;SDS011;8529;48.108;-1.706;2023-04-30T05:07:27;27.73;;;15.27;;
16824;SDS011;8529;48.108;-1.706;2023-04-30T05:09:56;26.75;;;14.85;;
16824;SDS011;8529;48.108;-1.706;2023-04-30T05:12:23;31.45;;;15.85;;
16824;SDS011;8529;48.108;-1.706;2023-04-30T05:14:49;26.75;;;15.02;;
16824;SDS011;8529;48.108;-1.706;2023-04-30T05:17:16;31.90;;;15.32;;
16824;SDS011;8529;48.108;-1.706;2023-04-30T05:19:43;26.73;;;14.73;;
16824;SDS011;8529;48.108;-1.706;2023-04-30T05:22:11;31.73;;;16.40;;
16824;SDS011;8529;48.108;-1.706;2023-04-30T05:24:38;27.58;;;16.42;;
16824;SDS011;8529;48.108;-1.706;2023-04-30T05:27:06;30.88;;;16.02;;
16824;SDS011;8529;48.108;-1.706;2023-04-30T05:29:34;28.02;;;14.85;;
16824;SDS011;8529;48.108;-1.706;2023-04-30T05:32:00;27.73;;;14.77;;
16824;SDS011;8529;48.108;-1.706;2023-04-30T05:34:27;25.55;;;15.23;;
16824;SDS011;8529;48.108;-1.706;2023-04-30T05:36:54;26.48;;;14.82;;
16824;SDS011;8529;48.108;-1.706;2023-04-30T05:39:21;25.33;;;14.10;;
16824;SDS011;8529;48.108;-1.706;2023-04-30T05:41:48;23.80;;;14.82;;
16824;SDS011;8529;48.108;-1.706;2023-04-30T05:44:16;25.05;;;13.63;;
16824;SDS011;8529;48.108;-1.706;2023-04-30T05:46:43;25.33;;;15.07;;
16824;SDS011;8529;48.108;-1.706;2023-04-30T05:49:10;28.17;;;15.35;;
16824;SDS011;8529;48.108;-1.706;2023-04-30T05:51:37;25.70;;;14.15;;
16824;SDS011;8529;48.108;-1.706;2023-04-30T05:54:04;27.23;;;14.55;;
16824;SDS011;8529;48.108;-1.706;2023-04-30T05:56:31;25.38;;;14.82;;
16824;SDS011;8529;48.108;-1.706;2023-04-30T05:58:58;27.80;;;16.20;;
16824;SDS011;8529;48.108;-1.706;2023-04-30T06:01:26;27.95;;;16.27;;
16824;SDS011;8529;48.108;-1.706;2023-04-30T06:03:53;30.02;;;15.48;;
16824;SDS011;8529;48.108;-1.706;2023-04-30T06:06:20;25.45;;;14.55;;
16824;SDS011;8529;48.108;-1.706;2023-04-30T06:08:47;25.42;;;14.60;;
16824;SDS011;8529;48.108;-1.706;2023-04-30T06:11:14;24.70;;;15.05;;
16824;SDS011;8529;48.108;-1.706;2023-04-30T06:13:41;23.33;;;14.13;;
16824;SDS011;8529;48.108;-1.706;2023-04-30T06:16:08;22.60;;;13.15;;
16824;SDS011;8529;48.108;-1.706;2023-04-30T06:18:37;22.67;;;13.82;;
16824;SDS011;8529;48.108;-1.706;2023-04-30T06:21:03;20.45;;;13.77;;
16824;SDS011;8529;48.108;-1.706;2023-04-30T06:23:30;23.23;;;14.73;;
16824;SDS011;8529;48.108;-1.706;2023-04-30T06:25:57;22.02;;;13.45;;
16824;SDS011;8529;48.108;-1.706;2023-04-30T06:28:24;19.33;;;12.40;;
16824;SDS011;8529;48.108;-1.706;2023-04-30T06:30:51;19.80;;;12.63;;
16824;SDS011;8529;48.108;-1.706;2023-04-30T06:33:19;16.77;;;11.27;;
16824;SDS011;8529;48.108;-1.706;2023-04-30T06:35:47;17.63;;;11.57;;
16824;SDS011;8529;48.108;-1.706;2023-04-30T06:38:15;20.92;;;12.95;;
16824;SDS011;8529;48.108;-1.706;2023-04-30T06:40:43;20.80;;;12.77;;
16824;SDS011;8529;48.108;-1.706;2023-04-30T06:43:10;18.85;;;12.32;;
16824;SDS011;8529;48.108;-1.706;2023-04-30T06:45:37;19.45;;;12.75;;
16824;SDS011;8529;48.108;-1.706;2023-04-30T06:48:04;19.05;;;11.52;;
16824;SDS011;8529;48.108;-1.706;2023-04-30T06:50:31;17.08;;;11.88;;
16824;SDS011;8529;48.108;-1.706;2023-04-30T06:52:59;20.63;;;12.43;;
16824;SDS011;8529;48.108;-1.706;2023-04-30T06:55:27;18.33;;;11.70;;
16824;SDS011;8529;48.108;-1.706;2023-04-30T06:57:53;19.75;;;12.57;;
16824;SDS011;8529;48.108;-1.706;2023-04-30T07:00:21;18.88;;;12.52;;
16824;SDS011;8529;48.108;-1.706;2023-04-30T07:02:48;20.75;;;12.85;;
16824;SDS011;8529;48.108;-1.706;2023-04-30T07:05:16;18.02;;;12.13;;
16824;SDS011;8529;48.108;-1.706;2023-04-30T07:07:43;19.95;;;12.13;;
16824;SDS011;8529;48.108;-1.706;2023-04-30T07:10:11;20.80;;;12.70;;
16824;SDS011;8529;48.108;-1.706;2023-04-30T07:12:38;19.98;;;12.40;;
16824;SDS011;8529;48.108;-1.706;2023-04-30T07:15:05;21.95;;;12.82;;
16824;SDS011;8529;48.108;-1.706;2023-04-30T07:17:33;20.52;;;13.68;;
16824;SDS011;8529;48.108;-1.706;2023-04-30T07:20:01;20.08;;;12.57;;
16824;SDS011;8529;48.108;-1.706;2023-04-30T07:22:28;17.77;;;12.73;;
16824;SDS011;8529;48.108;-1.706;2023-04-30T07:24:55;20.83;;;12.68;;
16824;SDS011;8529;48.108;-1.706;2023-04-30T07:27:23;21.08;;;13.43;;
16824;SDS011;8529;48.108;-1.706;2023-04-30T07:29:50;19.25;;;13.57;;
16824;SDS011;8529;48.108;-1.706;2023-04-30T07:32:17;23.45;;;13.82;;
16824;SDS011;8529;48.108;-1.706;2023-04-30T07:34:44;24.92;;;14.48;;
16824;SDS011;8529;48.108;-1.706;2023-04-30T07:37:11;20.48;;;12.88;;
16824;SDS011;8529;48.108;-1.706;2023-04-30T07:39:38;21.88;;;13.95;;
16824;SDS011;8529;48.108;-1.706;2023-04-30T07:42:05;24.08;;;14.18;;
16824;SDS011;8529;48.108;-1.706;2023-04-30T07:44:33;21.33;;;13.50;;
16824;SDS011;8529;48.108;-1.706;2023-04-30T07:47:00;21.70;;;13.85;;
16824;SDS011;8529;48.108;-1.706;2023-04-30T07:49:27;21.55;;;14.45;;
16824;SDS011;8529;48.108;-1.706;2023-04-30T07:51:54;22.35;;;13.82;;
16824;SDS011;8529;48.108;-1.706;2023-04-30T07:54:21;20.30;;;13.27;;
16824;SDS011;8529;48.108;-1.706;2023-04-30T07:56:48;23.65;;;14.40;;
16824;SDS011;8529;48.108;-1.706;2023-04-30T07:59:15;22.30;;;14.50;;
16824;SDS011;8529;48.108;-1.706;2023-04-30T08:01:44;21.55;;;13.48;;
16824;SDS011;8529;48.108;-1.706;2023-04-30T08:04:11;23.65;;;14.10;;
16824;SDS011;8529;48.108;-1.706;2023-04-30T08:06:37;19.55;;;14.10;;
16824;SDS011;8529;48.108;-1.706;2023-04-30T08:09:04;22.45;;;14.80;;
16824;SDS011;8529;48.108;-1.706;2023-04-30T08:11:31;24.05;;;14.63;;
16824;SDS011;8529;48.108;-1.706;2023-04-30T08:13:58;22.50;;;13.75;;
16824;SDS011;8529;48.108;-1.706;2023-04-30T08:16:25;22.08;;;14.38;;
16824;SDS011;8529;48.108;-1.706;2023-04-30T08:18:54;25.75;;;15.88;;
16824;SDS011;8529;48.108;-1.706;2023-04-30T08:21:21;23.55;;;14.80;;
16824;SDS011;8529;48.108;-1.706;2023-04-30T08:23:48;24.88;;;14.38;;
16824;SDS011;8529;48.108;-1.706;2023-04-30T08:26:15;21.90;;;14.52;;
16824;SDS011;8529;48.108;-1.706;2023-04-30T08:28:41;21.35;;;13.65;;
16824;SDS011;8529;48.108;-1.706;2023-04-30T08:31:08;22.02;;;14.90;;
16824;SDS011;8529;48.108;-1.706;2023-04-30T08:33:35;23.73;;;15.02;;
16824;SDS011;8529;48.108;-1.706;2023-04-30T08:36:04;22.38;;;15.05;;
16824;SDS011;8529;48.108;-1.706;2023-04-30T08:38:31;24.63;;;15.90;;
16824;SDS011;8529;48.108;-1.706;2023-04-30T08:41:01;26.50;;;15.02;;
16824;SDS011;8529;48.108;-1.706;2023-04-30T08:43:34;23.70;;;14.48;;
16824;SDS011;8529;48.108;-1.706;2023-04-30T08:46:00;25.92;;;16.27;;
16824;SDS011;8529;48.108;-1.706;2023-04-30T08:48:28;25.27;;;15.63;;
16824;SDS011;8529;48.108;-1.706;2023-04-30T08:50:58;23.95;;;16.00;;
16824;SDS011;8529;48.108;-1.706;2023-04-30T08:53:27;24.45;;;15.25;;
16824;SDS011;8529;48.108;-1.706;2023-04-30T08:55:55;23.13;;;14.70;;
16824;SDS011;8529;48.108;-1.706;2023-04-30T08:58:22;21.90;;;14.65;;
16824;SDS011;8529;48.108;-1.706;2023-04-30T09:00:49;23.55;;;15.35;;
16824;SDS011;8529;48.108;-1.706;2023-04-30T09:03:16;24.45;;;15.77;;
16824;SDS011;8529;48.108;-1.706;2023-04-30T09:05:46;22.50;;;14.15;;
16824;SDS011;8529;48.108;-1.706;2023-04-30T09:08:16;25.48;;;15.23;;
16824;SDS011;8529;48.108;-1.706;2023-04-30T09:10:45;19.45;;;13.65;;
16824;SDS011;8529;48.108;-1.706;2023-04-30T09:13:12;26.40;;;15.73;;
16824;SDS011;8529;48.108;-1.706;2023-04-30T09:15:39;23.23;;;15.10;;
16824;SDS011;8529;48.108;-1.706;2023-04-30T09:18:09;23.25;;;14.65;;
16824;SDS011;8529;48.108;-1.706;2023-04-30T09:20:38;21.17;;;13.90;;
16824;SDS011;8529;48.108;-1.706;2023-04-30T09:23:20;22.88;;;15.52;;
16824;SDS011;8529;48.108;-1.706;2023-04-30T09:25:48;24.33;;;14.70;;
16824;SDS011;8529;48.108;-1.706;2023-04-30T09:28:15;25.77;;;15.90;;
16824;SDS011;8529;48.108;-1.706;2023-04-30T09:30:42;27.65;;;17.58;;
16824;SDS011;8529;48.108;-1.706;2023-04-30T09:33:09;26.40;;;16.77;;
16824;SDS011;8529;48.108;-1.706;2023-04-30T09:35:36;25.55;;;16.67;;
16824;SDS011;8529;48.108;-1.706;2023-04-30T09:38:05;25.40;;;17.08;;
16824;SDS011;8529;48.108;-1.706;2023-04-30T09:40:35;32.30;;;19.60;;
16824;SDS011;8529;48.108;-1.706;2023-04-30T09:43:07;30.65;;;18.13;;
16824;SDS011;8529;48.108;-1.706;2023-04-30T09:45:38;28.98;;;17.38;;
16824;SDS011;8529;48.108;-1.706;2023-04-30T09:48:07;25.80;;;16.27;;
16824;SDS011;8529;48.108;-1.706;2023-04-30T09:50:38;29.33;;;18.08;;
16824;SDS011;8529;48.108;-1.706;2023-04-30T09:53:06;26.48;;;17.65;;
16824;SDS011;8529;48.108;-1.706;2023-04-30T09:55:34;28.75;;;17.67;;
16824;SDS011;8529;48.108;-1.706;2023-04-30T09:58:02;28.48;;;17.30;;
16824;SDS011;8529;48.108;-1.706;2023-04-30T10:00:33;26.15;;;17.35;;
16824;SDS011;8529;48.108;-1.706;2023-04-30T10:03:01;24.30;;;16.08;;
16824;SDS011;8529;48.108;-1.706;2023-04-30T10:05:33;25.13;;;15.93;;
16824;SDS011;8529;48.108;-1.706;2023-04-30T10:08:03;26.25;;;15.77;;
16824;SDS011;8529;48.108;-1.706;2023-04-30T10:10:32;26.58;;;15.70;;
16824;SDS011;8529;48.108;-1.706;2023-04-30T10:13:02;27.02;;;16.98;;
16824;SDS011;8529;48.108;-1.706;2023-04-30T10:15:33;30.30;;;17.83;;
16824;SDS011;8529;48.108;-1.706;2023-04-30T10:18:04;23.52;;;15.43;;
16824;SDS011;8529;48.108;-1.706;2023-04-30T10:20:35;24.35;;;15.85;;
16824;SDS011;8529;48.108;-1.706;2023-04-30T10:23:03;26.80;;;16.83;;
16824;SDS011;8529;48.108;-1.706;2023-04-30T10:25:31;24.23;;;16.50;;
16824;SDS011;8529;48.108;-1.706;2023-04-30T10:27:59;22.90;;;15.50;;
16824;SDS011;8529;48.108;-1.706;2023-04-30T10:30:25;26.50;;;16.63;;
16824;SDS011;8529;48.108;-1.706;2023-04-30T10:32:58;26.38;;;16.27;;
16824;SDS011;8529;48.108;-1.706;2023-04-30T10:35:38;25.27;;;16.40;;
16824;SDS011;8529;48.108;-1.706;2023-04-30T10:38:12;26.92;;;17.02;;
16824;SDS011;8529;48.108;-1.706;2023-04-30T10:40:44;25.60;;;16.15;;
16824;SDS011;8529;48.108;-1.706;2023-04-30T10:43:12;23.05;;;15.77;;
16824;SDS011;8529;48.108;-1.706;2023-04-30T10:45:41;25.80;;;16.35;;
16824;SDS011;8529;48.108;-1.706;2023-04-30T10:48:10;27.08;;;17.65;;
16824;SDS011;8529;48.108;-1.706;2023-04-30T10:50:40;20.20;;;14.25;;
16824;SDS011;8529;48.108;-1.706;2023-04-30T10:53:11;27.20;;;15.20;;
16824;SDS011;8529;48.108;-1.706;2023-04-30T10:55:44;22.75;;;15.02;;
16824;SDS011;8529;48.108;-1.706;2023-04-30T11:01:00;18.52;;;13.13;;
16824;SDS011;8529;48.108;-1.706;2023-04-30T11:03:30;19.27;;;12.32;;
16824;SDS011;8529;48.108;-1.706;2023-04-30T11:05:59;17.17;;;11.85;;
16824;SDS011;8529;48.108;-1.706;2023-04-30T11:08:33;20.00;;;13.23;;
16824;SDS011;8529;48.108;-1.706;2023-04-30T11:11:01;16.85;;;12.13;;
16824;SDS011;8529;48.108;-1.706;2023-04-30T11:13:37;17.60;;;12.57;;
16824;SDS011;8529;48.108;-1.706;2023-04-30T11:16:06;18.23;;;11.57;;
16824;SDS011;8529;48.108;-1.706;2023-04-30T11:18:34;17.55;;;11.65;;
16824;SDS011;8529;48.108;-1.706;2023-04-30T11:21:07;16.90;;;12.18;;
16824;SDS011;8529;48.108;-1.706;2023-04-30T11:23:35;21.05;;;12.18;;
16824;SDS011;8529;48.108;-1.706;2023-04-30T11:26:02;21.50;;;13.98;;
16824;SDS011;8529;48.108;-1.706;2023-04-30T11:28:31;22.13;;;14.57;;
16824;SDS011;8529;48.108;-1.706;2023-04-30T11:31:00;21.13;;;13.63;;
16824;SDS011;8529;48.108;-1.706;2023-04-30T11:33:27;19.15;;;12.65;;
16824;SDS011;8529;48.108;-1.706;2023-04-30T11:35:57;19.27;;;12.88;;
16824;SDS011;8529;48.108;-1.706;2023-04-30T11:38:26;19.10;;;12.30;;
16824;SDS011;8529;48.108;-1.706;2023-04-30T11:40:54;20.17;;;12.68;;
16824;SDS011;8529;48.108;-1.706;2023-04-30T11:43:22;21.15;;;14.00;;
16824;SDS011;8529;48.108;-1.706;2023-04-30T11:48:42;23.60;;;15.73;;
16824;SDS011;8529;48.108;-1.706;2023-04-30T11:51:16;19.75;;;13.60;;
16824;SDS011;8529;48.108;-1.706;2023-04-30T11:53:44;23.90;;;14.93;;
16824;SDS011;8529;48.108;-1.706;2023-04-30T11:56:12;19.85;;;13.60;;
16824;SDS011;8529;48.108;-1.706;2023-04-30T11:58:39;21.10;;;13.65;;
16824;SDS011;8529;48.108;-1.706;2023-04-30T12:01:06;18.35;;;12.65;;
16824;SDS011;8529;48.108;-1.706;2023-04-30T12:03:39;19.00;;;12.63;;
16824;SDS011;8529;48.108;-1.706;2023-04-30T12:06:08;17.95;;;12.82;;
16824;SDS011;8529;48.108;-1.706;2023-04-30T12:08:37;19.25;;;12.25;;
16824;SDS011;8529;48.108;-1.706;2023-04-30T12:11:17;18.73;;;13.90;;
16824;SDS011;8529;48.108;-1.706;2023-04-30T12:13:48;19.65;;;13.35;;
16824;SDS011;8529;48.108;-1.706;2023-04-30T12:16:16;18.10;;;12.43;;
16824;SDS011;8529;48.108;-1.706;2023-04-30T12:18:43;20.63;;;13.75;;
16824;SDS011;8529;48.108;-1.706;2023-04-30T12:21:10;22.75;;;15.80;;
16824;SDS011;8529;48.108;-1.706;2023-04-30T12:23:39;23.80;;;14.23;;
16824;SDS011;8529;48.108;-1.706;2023-04-30T12:26:06;23.33;;;13.90;;
16824;SDS011;8529;48.108;-1.706;2023-04-30T12:28:33;20.27;;;12.85;;
16824;SDS011;8529;48.108;-1.706;2023-04-30T12:31:00;20.85;;;13.50;;
16824;SDS011;8529;48.108;-1.706;2023-04-30T12:33:30;20.40;;;12.80;;
16824;SDS011;8529;48.108;-1.706;2023-04-30T12:35:57;20.15;;;13.00;;
16824;SDS011;8529;48.108;-1.706;2023-04-30T12:38:24;24.60;;;12.95;;
16824;SDS011;8529;48.108;-1.706;2023-04-30T12:40:52;18.08;;;12.20;;
16824;SDS011;8529;48.108;-1.706;2023-04-30T12:43:19;18.60;;;11.85;;
16824;SDS011;8529;48.108;-1.706;2023-04-30T12:45:47;20.63;;;13.57;;
16824;SDS011;8529;48.108;-1.706;2023-04-30T12:48:16;18.42;;;12.77;;
16824;SDS011;8529;48.108;-1.706;2023-04-30T12:50:49;19.20;;;12.30;;
16824;SDS011;8529;48.108;-1.706;2023-04-30T12:53:18;20.02;;;11.55;;
16824;SDS011;8529;48.108;-1.706;2023-04-30T12:58:36;19.67;;;12.50;;
16824;SDS011;8529;48.108;-1.706;2023-04-30T13:01:03;19.30;;;11.88;;
16824;SDS011;8529;48.108;-1.706;2023-04-30T13:03:31;18.55;;;11.07;;
16824;SDS011;8529;48.108;-1.706;2023-04-30T13:05:58;16.73;;;10.77;;
16824;SDS011;8529;48.108;-1.706;2023-04-30T13:08:26;16.52;;;10.77;;
16824;SDS011;8529;48.108;-1.706;2023-04-30T13:10:53;16.45;;;9.82;;
16824;SDS011;8529;48.108;-1.706;2023-04-30T13:13:21;14.27;;;9.30;;
16824;SDS011;8529;48.108;-1.706;2023-04-30T13:15:48;13.32;;;8.93;;
16824;SDS011;8529;48.108;-1.706;2023-04-30T13:18:15;12.10;;;8.95;;
16824;SDS011;8529;48.108;-1.706;2023-04-30T13:20:42;12.68;;;8.77;;
16824;SDS011;8529;48.108;-1.706;2023-04-30T13:23:09;12.23;;;8.70;;
16824;SDS011;8529;48.108;-1.706;2023-04-30T13:25:37;11.32;;;7.22;;
16824;SDS011;8529;48.108;-1.706;2023-04-30T13:28:04;11.75;;;8.25;;
16824;SDS011;8529;48.108;-1.706;2023-04-30T13:30:33;11.52;;;7.93;;
16824;SDS011;8529;48.108;-1.706;2023-04-30T13:33:00;10.65;;;7.68;;
16824;SDS011;8529;48.108;-1.706;2023-04-30T13:35:27;11.52;;;8.15;;
16824;SDS011;8529;48.108;-1.706;2023-04-30T13:37:54;9.40;;;7.65;;
16824;SDS011;8529;48.108;-1.706;2023-04-30T13:40:21;12.45;;;8.05;;
16824;SDS011;8529;48.108;-1.706;2023-04-30T13:42:48;12.20;;;8.75;;
16824;SDS011;8529;48.108;-1.706;2023-04-30T13:45:15;12.98;;;9.15;;
16824;SDS011;8529;48.108;-1.706;2023-04-30T13:47:43;11.05;;;8.35;;
16824;SDS011;8529;48.108;-1.706;2023-04-30T13:50:11;10.98;;;7.85;;
16824;SDS011;8529;48.108;-1.706;2023-04-30T13:52:38;10.45;;;7.28;;
16824;SDS011;8529;48.108;-1.706;2023-04-30T13:55:05;10.00;;;7.25;;
16824;SDS011;8529;48.108;-1.706;2023-04-30T13:57:33;10.25;;;7.15;;
16824;SDS011;8529;48.108;-1.706;2023-04-30T14:00:00;8.02;;;6.60;;
16824;SDS011;8529;48.108;-1.706;2023-04-30T14:02:27;8.65;;;6.18;;
16824;SDS011;8529;48.108;-1.706;2023-04-30T14:04:55;7.90;;;5.65;;
16824;SDS011;8529;48.108;-1.706;2023-04-30T14:07:23;8.57;;;6.50;;
16824;SDS011;8529;48.108;-1.706;2023-04-30T14:09:50;8.98;;;6.25;;
16824;SDS011;8529;48.108;-1.706;2023-04-30T14:12:17;10.88;;;6.75;;
16824;SDS011;8529;48.108;-1.706;2023-04-30T14:14:45;8.80;;;6.18;;
16824;SDS011;8529;48.108;-1.706;2023-04-30T14:17:12;8.40;;;6.30;;
16824;SDS011;8529;48.108;-1.706;2023-04-30T14:19:39;9.88;;;7.38;;
16824;SDS011;8529;48.108;-1.706;2023-04-30T14:22:08;10.57;;;7.53;;
16824;SDS011;8529;48.108;-1.706;2023-04-30T14:24:34;10.93;;;7.93;;
16824;SDS011;8529;48.108;-1.706;2023-04-30T14:27:02;9.65;;;7.25;;
16824;SDS011;8529;48.108;-1.706;2023-04-30T14:29:29;12.90;;;7.70;;
16824;SDS011;8529;48.108;-1.706;2023-04-30T14:31:55;11.27;;;7.28;;
16824;SDS011;8529;48.108;-1.706;2023-04-30T14:34:22;9.90;;;6.85;;
16824;SDS011;8529;48.108;-1.706;2023-04-30T14:36:49;7.78;;;5.57;;